Juan Ramon Egana — EAUT — position and weather

sailwx.info

Track history (hours):
 
Tides and Currents Weather Stations Pressure Air Temp Water Temp Dewpoint Dewpoint Depression Visibility Wind Speed Wind Dir Waves Ship Positions

Juan Ramon Egana

Last reported at 2018-Jun-13 02:15 UTC. Time now 2018-Jun-19 14:20 UTC.
Position N 39°32' W 009°42'.

Length 77 m.

Type: Fishing. MMSI: 224501000.

Date/timePositionNaut miles runAvg speedWind from/ knotsBaromVisibWave heightAir tempDewpointWater temp
2018-Jun-13 02:15N 39°32' W 009°42'312.0
2018-Jun-13 01:58N 39°29' W 009°43'612.2
2018-Jun-13 01:30N 39°23' W 009°43'612.4
2018-Jun-13 01:01N 39°17' W 009°45'612.6
2018-Jun-13 00:30N 39°11' W 009°46'612.5
2018-Jun-13 00:00N 39°05' W 009°47'612.7
2018-Jun-12 23:30N 38°58' W 009°49'612.5
2018-Jun-12 23:01N 38°52' W 009°50'612.6
2018-Jun-12 22:31N 38°46' W 009°50'612.6
2018-Jun-12 22:00N 38°40' W 009°50'612.3
2018-Jun-12 21:31N 38°34' W 009°50'611.9
2018-Jun-12 21:00N 38°28' W 009°50'612.0
2018-Jun-12 20:30N 38°22' W 009°50'612.2
2018-Jun-12 19:59N 38°15' W 009°50'612.3
2018-Jun-12 19:31N 38°09' W 009°50'612.5
2018-Jun-12 19:00N 38°03' W 009°50'  
Track history (hours):
 
Tides and Currents Weather Stations Pressure Air Temp Water Temp Dewpoint Dewpoint Depression Visibility Wind Speed Wind Dir Waves Ship Positions

Juan Ramon Egana

Last reported at 2018-Jun-13 02:15 UTC. Time now 2018-Jun-19 14:20 UTC.
Position N 39°32' W 009°42'.

Length 77 m.

Type: Fishing. MMSI: 224501000.

Date/timePositionNaut miles runAvg speedWind from/ knotsBaromVisibWave heightAir tempDewpointWater temp
2018-Jun-13 02:15N 39°32' W 009°42'312.0
2018-Jun-13 01:58N 39°29' W 009°43'612.2
2018-Jun-13 01:30N 39°23' W 009°43'612.4
2018-Jun-13 01:01N 39°17' W 009°45'612.6
2018-Jun-13 00:30N 39°11' W 009°46'612.5
2018-Jun-13 00:00N 39°05' W 009°47'612.7
2018-Jun-12 23:30N 38°58' W 009°49'612.5
2018-Jun-12 23:01N 38°52' W 009°50'612.6
2018-Jun-12 22:31N 38°46' W 009°50'612.6
2018-Jun-12 22:00N 38°40' W 009°50'612.3
2018-Jun-12 21:31N 38°34' W 009°50'611.9
2018-Jun-12 21:00N 38°28' W 009°50'612.0
2018-Jun-12 20:30N 38°22' W 009°50'612.2
2018-Jun-12 19:59N 38°15' W 009°50'612.3
2018-Jun-12 19:31N 38°09' W 009°50'612.5
2018-Jun-12 19:00N 38°03' W 009°50'  

Dump ship's entire track history